sensor_id;sensor_type;location;lat;lon;timestamp;temperature;humidity
3736;DHT22;1883;48.202;16.310;2024-02-28T00:00:04;10.30;61.90
3736;DHT22;1883;48.202;16.310;2024-02-28T00:02:33;10.40;61.90
3736;DHT22;1883;48.202;16.310;2024-02-28T00:05:00;10.30;61.90
3736;DHT22;1883;48.202;16.310;2024-02-28T00:07:29;10.20;61.70
3736;DHT22;1883;48.202;16.310;2024-02-28T00:09:58;10.30;61.70
3736;DHT22;1883;48.202;16.310;2024-02-28T00:12:25;10.30;61.80
3736;DHT22;1883;48.202;16.310;2024-02-28T00:14:52;10.40;61.70
3736;DHT22;1883;48.202;16.310;2024-02-28T00:17:20;10.40;61.60
3736;DHT22;1883;48.202;16.310;2024-02-28T00:19:49;10.40;61.60
3736;DHT22;1883;48.202;16.310;2024-02-28T00:22:16;10.50;61.60
3736;DHT22;1883;48.202;16.310;2024-02-28T00:24:43;10.40;61.50
3736;DHT22;1883;48.202;16.310;2024-02-28T00:27:12;10.40;61.70
3736;DHT22;1883;48.202;16.310;2024-02-28T00:29:38;10.40;61.30
3736;DHT22;1883;48.202;16.310;2024-02-28T00:32:06;10.30;61.50
3736;DHT22;1883;48.202;16.310;2024-02-28T00:34:33;10.40;61.50
3736;DHT22;1883;48.202;16.310;2024-02-28T00:37:01;10.40;61.40
3736;DHT22;1883;48.202;16.310;2024-02-28T00:39:28;10.40;61.50
3736;DHT22;1883;48.202;16.310;2024-02-28T00:42:02;10.40;61.40
3736;DHT22;1883;48.202;16.310;2024-02-28T00:44:29;10.40;61.40
3736;DHT22;1883;48.202;16.310;2024-02-28T00:46:56;10.40;61.40
3736;DHT22;1883;48.202;16.310;2024-02-28T00:49:23;10.50;61.20
3736;DHT22;1883;48.202;16.310;2024-02-28T00:51:50;10.60;61.30
3736;DHT22;1883;48.202;16.310;2024-02-28T00:54:18;10.60;61.50
3736;DHT22;1883;48.202;16.310;2024-02-28T00:56:47;10.60;61.40
3736;DHT22;1883;48.202;16.310;2024-02-28T00:59:14;10.60;61.50
3736;DHT22;1883;48.202;16.310;2024-02-28T01:01:41;10.60;61.60
3736;DHT22;1883;48.202;16.310;2024-02-28T01:04:08;10.60;61.60
3736;DHT22;1883;48.202;16.310;2024-02-28T01:06:36;10.70;61.60
3736;DHT22;1883;48.202;16.310;2024-02-28T01:09:03;10.70;61.60
3736;DHT22;1883;48.202;16.310;2024-02-28T01:11:53;10.70;61.70
3736;DHT22;1883;48.202;16.310;2024-02-28T01:14:42;10.70;61.80
3736;DHT22;1883;48.202;16.310;2024-02-28T01:17:46;10.70;61.80
3736;DHT22;1883;48.202;16.310;2024-02-28T01:20:16;10.70;61.90
3736;DHT22;1883;48.202;16.310;2024-02-28T01:22:43;10.70;61.90
3736;DHT22;1883;48.202;16.310;2024-02-28T01:25:10;10.70;61.90
3736;DHT22;1883;48.202;16.310;2024-02-28T01:27:38;10.80;62.00
3736;DHT22;1883;48.202;16.310;2024-02-28T01:30:06;10.70;62.00
3736;DHT22;1883;48.202;16.310;2024-02-28T01:32:33;10.70;62.10
3736;DHT22;1883;48.202;16.310;2024-02-28T01:35:02;10.70;62.10
3736;DHT22;1883;48.202;16.310;2024-02-28T01:37:30;10.70;62.00
3736;DHT22;1883;48.202;16.310;2024-02-28T01:39:57;10.70;62.00
3736;DHT22;1883;48.202;16.310;2024-02-28T01:42:24;10.70;62.00
3736;DHT22;1883;48.202;16.310;2024-02-28T01:44:52;10.80;62.00
3736;DHT22;1883;48.202;16.310;2024-02-28T01:47:19;10.80;62.10
3736;DHT22;1883;48.202;16.310;2024-02-28T01:49:47;10.80;62.10
3736;DHT22;1883;48.202;16.310;2024-02-28T01:52:14;10.80;62.20
3736;DHT22;1883;48.202;16.310;2024-02-28T01:54:41;10.80;62.30
3736;DHT22;1883;48.202;16.310;2024-02-28T01:57:09;10.80;62.40
3736;DHT22;1883;48.202;16.310;2024-02-28T01:59:37;10.70;62.40
3736;DHT22;1883;48.202;16.310;2024-02-28T02:02:06;10.70;62.20
3736;DHT22;1883;48.202;16.310;2024-02-28T02:04:33;10.70;62.20
3736;DHT22;1883;48.202;16.310;2024-02-28T02:07:00;10.80;62.10
3736;DHT22;1883;48.202;16.310;2024-02-28T02:09:27;10.70;62.20
3736;DHT22;1883;48.202;16.310;2024-02-28T02:11:53;10.70;62.10
3736;DHT22;1883;48.202;16.310;2024-02-28T02:14:20;10.70;62.00
3736;DHT22;1883;48.202;16.310;2024-02-28T02:16:47;10.70;62.10
3736;DHT22;1883;48.202;16.310;2024-02-28T02:19:16;10.70;62.10
3736;DHT22;1883;48.202;16.310;2024-02-28T02:21:49;10.80;62.20
3736;DHT22;1883;48.202;16.310;2024-02-28T02:24:18;10.80;62.30
3736;DHT22;1883;48.202;16.310;2024-02-28T02:26:45;10.80;62.30
3736;DHT22;1883;48.202;16.310;2024-02-28T02:29:12;10.80;62.40
3736;DHT22;1883;48.202;16.310;2024-02-28T02:31:39;10.70;62.30
3736;DHT22;1883;48.202;16.310;2024-02-28T02:34:06;10.70;62.30
3736;DHT22;1883;48.202;16.310;2024-02-28T02:36:33;10.60;62.30
3736;DHT22;1883;48.202;16.310;2024-02-28T02:39:00;10.70;62.30
3736;DHT22;1883;48.202;16.310;2024-02-28T02:41:29;10.60;62.30
3736;DHT22;1883;48.202;16.310;2024-02-28T02:43:56;10.60;62.30
3736;DHT22;1883;48.202;16.310;2024-02-28T02:46:23;10.60;62.30
3736;DHT22;1883;48.202;16.310;2024-02-28T02:48:50;10.50;62.20
3736;DHT22;1883;48.202;16.310;2024-02-28T02:51:18;10.60;62.20
3736;DHT22;1883;48.202;16.310;2024-02-28T02:53:45;10.60;62.10
3736;DHT22;1883;48.202;16.310;2024-02-28T02:56:12;10.50;62.10
3736;DHT22;1883;48.202;16.310;2024-02-28T02:58:41;10.50;62.20
3736;DHT22;1883;48.202;16.310;2024-02-28T03:01:07;10.50;62.10
3736;DHT22;1883;48.202;16.310;2024-02-28T03:03:35;10.50;62.00
3736;DHT22;1883;48.202;16.310;2024-02-28T03:06:03;10.50;61.90
3736;DHT22;1883;48.202;16.310;2024-02-28T03:08:30;10.40;61.90
3736;DHT22;1883;48.202;16.310;2024-02-28T03:10:58;10.30;61.90
3736;DHT22;1883;48.202;16.310;2024-02-28T03:13:25;10.30;61.80
3736;DHT22;1883;48.202;16.310;2024-02-28T03:15:53;10.10;61.70
3736;DHT22;1883;48.202;16.310;2024-02-28T03:18:20;10.00;61.60
3736;DHT22;1883;48.202;16.310;2024-02-28T03:20:47;9.80;61.40
3736;DHT22;1883;48.202;16.310;2024-02-28T03:23:14;9.70;61.30
3736;DHT22;1883;48.202;16.310;2024-02-28T03:25:40;9.70;61.30
3736;DHT22;1883;48.202;16.310;2024-02-28T03:28:07;9.60;61.30
3736;DHT22;1883;48.202;16.310;2024-02-28T03:30:34;9.50;61.30
3736;DHT22;1883;48.202;16.310;2024-02-28T03:33:03;9.50;61.20
3736;DHT22;1883;48.202;16.310;2024-02-28T03:35:30;9.60;61.30
3736;DHT22;1883;48.202;16.310;2024-02-28T03:37:57;9.50;61.40
3736;DHT22;1883;48.202;16.310;2024-02-28T03:40:24;9.50;61.40
3736;DHT22;1883;48.202;16.310;2024-02-28T03:42:51;9.40;61.30
3736;DHT22;1883;48.202;16.310;2024-02-28T03:45:18;9.30;61.30
3736;DHT22;1883;48.202;16.310;2024-02-28T03:47:45;9.30;61.30
3736;DHT22;1883;48.202;16.310;2024-02-28T03:50:13;9.20;61.30
3736;DHT22;1883;48.202;16.310;2024-02-28T03:52:40;9.20;61.30
3736;DHT22;1883;48.202;16.310;2024-02-28T03:55:08;9.10;61.30
3736;DHT22;1883;48.202;16.310;2024-02-28T03:57:35;9.10;61.30
3736;DHT22;1883;48.202;16.310;2024-02-28T04:00:02;9.00;61.20
3736;DHT22;1883;48.202;16.310;2024-02-28T04:02:30;9.00;61.30
3736;DHT22;1883;48.202;16.310;2024-02-28T04:04:57;8.90;61.20
3736;DHT22;1883;48.202;16.310;2024-02-28T04:07:25;8.90;61.20
3736;DHT22;1883;48.202;16.310;2024-02-28T04:09:52;8.80;61.10
3736;DHT22;1883;48.202;16.310;2024-02-28T04:12:19;8.70;61.10
3736;DHT22;1883;48.202;16.310;2024-02-28T04:14:46;8.70;61.10
3736;DHT22;1883;48.202;16.310;2024-02-28T04:17:13;8.70;61.10
3736;DHT22;1883;48.202;16.310;2024-02-28T04:19:40;8.60;60.90
3736;DHT22;1883;48.202;16.310;2024-02-28T04:22:07;8.50;60.90
3736;DHT22;1883;48.202;16.310;2024-02-28T04:24:35;8.50;60.90
3736;DHT22;1883;48.202;16.310;2024-02-28T04:27:02;8.40;60.70
3736;DHT22;1883;48.202;16.310;2024-02-28T04:29:31;8.30;60.80
3736;DHT22;1883;48.202;16.310;2024-02-28T04:31:58;8.30;60.80
3736;DHT22;1883;48.202;16.310;2024-02-28T04:34:25;8.20;60.80
3736;DHT22;1883;48.202;16.310;2024-02-28T04:36:52;8.20;60.70
3736;DHT22;1883;48.202;16.310;2024-02-28T04:39:19;8.20;60.70
3736;DHT22;1883;48.202;16.310;2024-02-28T04:41:47;8.10;60.70
3736;DHT22;1883;48.202;16.310;2024-02-28T04:44:14;8.10;60.60
3736;DHT22;1883;48.202;16.310;2024-02-28T04:46:41;8.00;60.60
3736;DHT22;1883;48.202;16.310;2024-02-28T04:49:08;8.00;60.60
3736;DHT22;1883;48.202;16.310;2024-02-28T04:51:35;8.00;60.50
3736;DHT22;1883;48.202;16.310;2024-02-28T04:54:02;7.90;60.60
3736;DHT22;1883;48.202;16.310;2024-02-28T04:56:29;7.90;60.60
3736;DHT22;1883;48.202;16.310;2024-02-28T04:58:57;7.90;60.60
3736;DHT22;1883;48.202;16.310;2024-02-28T05:01:24;7.90;60.60
3736;DHT22;1883;48.202;16.310;2024-02-28T05:03:51;7.80;60.60
3736;DHT22;1883;48.202;16.310;2024-02-28T05:06:18;7.80;60.70
3736;DHT22;1883;48.202;16.310;2024-02-28T05:08:45;7.80;60.70
3736;DHT22;1883;48.202;16.310;2024-02-28T05:11:12;7.80;60.80
3736;DHT22;1883;48.202;16.310;2024-02-28T05:13:39;7.80;60.80
3736;DHT22;1883;48.202;16.310;2024-02-28T05:16:13;7.80;60.80
3736;DHT22;1883;48.202;16.310;2024-02-28T05:18:40;7.70;60.80
3736;DHT22;1883;48.202;16.310;2024-02-28T05:21:07;7.70;60.80
3736;DHT22;1883;48.202;16.310;2024-02-28T05:23:34;7.70;60.80
3736;DHT22;1883;48.202;16.310;2024-02-28T05:26:02;7.70;60.90
3736;DHT22;1883;48.202;16.310;2024-02-28T05:28:29;7.70;61.00
3736;DHT22;1883;48.202;16.310;2024-02-28T05:30:57;7.70;61.00
3736;DHT22;1883;48.202;16.310;2024-02-28T05:33:25;7.60;60.90
3736;DHT22;1883;48.202;16.310;2024-02-28T05:35:52;7.60;61.00
3736;DHT22;1883;48.202;16.310;2024-02-28T05:38:19;7.60;61.00
3736;DHT22;1883;48.202;16.310;2024-02-28T05:40:46;7.60;60.90
3736;DHT22;1883;48.202;16.310;2024-02-28T05:43:16;7.60;61.00
3736;DHT22;1883;48.202;16.310;2024-02-28T05:45:44;7.60;61.00
3736;DHT22;1883;48.202;16.310;2024-02-28T05:48:11;7.60;61.00
3736;DHT22;1883;48.202;16.310;2024-02-28T05:50:39;7.50;61.10
3736;DHT22;1883;48.202;16.310;2024-02-28T05:53:08;7.60;61.10
3736;DHT22;1883;48.202;16.310;2024-02-28T05:55:36;7.60;61.20
3736;DHT22;1883;48.202;16.310;2024-02-28T05:58:03;7.60;61.30
3736;DHT22;1883;48.202;16.310;2024-02-28T06:00:31;7.60;61.30
3736;DHT22;1883;48.202;16.310;2024-02-28T06:02:58;7.60;61.30
3736;DHT22;1883;48.202;16.310;2024-02-28T06:05:25;7.60;61.30
3736;DHT22;1883;48.202;16.310;2024-02-28T06:07:53;7.70;61.40
3736;DHT22;1883;48.202;16.310;2024-02-28T06:10:27;7.70;61.50
3736;DHT22;1883;48.202;16.310;2024-02-28T06:12:54;7.70;61.50
3736;DHT22;1883;48.202;16.310;2024-02-28T06:15:21;7.70;61.50
3736;DHT22;1883;48.202;16.310;2024-02-28T06:17:48;7.80;61.60
3736;DHT22;1883;48.202;16.310;2024-02-28T06:20:16;7.70;61.60
3736;DHT22;1883;48.202;16.310;2024-02-28T06:22:43;7.70;61.70
3736;DHT22;1883;48.202;16.310;2024-02-28T06:25:11;7.80;61.80
3736;DHT22;1883;48.202;16.310;2024-02-28T06:27:45;7.80;61.80
3736;DHT22;1883;48.202;16.310;2024-02-28T06:30:13;7.90;61.90
3736;DHT22;1883;48.202;16.310;2024-02-28T06:32:41;7.90;61.90
3736;DHT22;1883;48.202;16.310;2024-02-28T06:35:10;7.90;62.00
3736;DHT22;1883;48.202;16.310;2024-02-28T06:37:37;7.90;62.10
3736;DHT22;1883;48.202;16.310;2024-02-28T06:40:06;8.00;62.00
3736;DHT22;1883;48.202;16.310;2024-02-28T06:42:39;8.00;62.20
3736;DHT22;1883;48.202;16.310;2024-02-28T06:45:09;8.00;62.30
3736;DHT22;1883;48.202;16.310;2024-02-28T06:47:36;8.00;62.30
3736;DHT22;1883;48.202;16.310;2024-02-28T06:50:04;8.00;62.30
3736;DHT22;1883;48.202;16.310;2024-02-28T06:52:35;8.00;62.40
3736;DHT22;1883;48.202;16.310;2024-02-28T06:55:04;8.10;62.40
3736;DHT22;1883;48.202;16.310;2024-02-28T06:57:36;8.00;62.40
3736;DHT22;1883;48.202;16.310;2024-02-28T07:00:05;8.10;62.40
3736;DHT22;1883;48.202;16.310;2024-02-28T07:02:33;8.10;62.50
3736;DHT22;1883;48.202;16.310;2024-02-28T07:05:01;8.10;62.50
3736;DHT22;1883;48.202;16.310;2024-02-28T07:07:28;8.10;62.60
3736;DHT22;1883;48.202;16.310;2024-02-28T07:09:56;8.20;62.60
3736;DHT22;1883;48.202;16.310;2024-02-28T07:12:23;8.20;62.70
3736;DHT22;1883;48.202;16.310;2024-02-28T07:14:58;8.40;58.70
3736;DHT22;1883;48.202;16.310;2024-02-28T07:17:27;8.20;62.70
3736;DHT22;1883;48.202;16.310;2024-02-28T07:19:54;8.30;62.70
3736;DHT22;1883;48.202;16.310;2024-02-28T07:22:21;8.30;62.80
3736;DHT22;1883;48.202;16.310;2024-02-28T07:24:48;8.30;62.90
3736;DHT22;1883;48.202;16.310;2024-02-28T07:27:15;8.30;62.90
3736;DHT22;1883;48.202;16.310;2024-02-28T07:29:42;8.30;62.60
3736;DHT22;1883;48.202;16.310;2024-02-28T07:32:11;8.50;61.60
3736;DHT22;1883;48.202;16.310;2024-02-28T07:34:41;8.60;61.20
3736;DHT22;1883;48.202;16.310;2024-02-28T07:37:16;8.50;60.00
3736;DHT22;1883;48.202;16.310;2024-02-28T07:39:43;8.50;59.60
3736;DHT22;1883;48.202;16.310;2024-02-28T07:42:10;8.60;58.90
3736;DHT22;1883;48.202;16.310;2024-02-28T07:44:37;8.60;59.90
3736;DHT22;1883;48.202;16.310;2024-02-28T07:47:06;8.60;59.20
3736;DHT22;1883;48.202;16.310;2024-02-28T07:49:33;8.60;58.80
3736;DHT22;1883;48.202;16.310;2024-02-28T07:52:01;8.60;58.90
3736;DHT22;1883;48.202;16.310;2024-02-28T07:54:28;8.60;59.30
3736;DHT22;1883;48.202;16.310;2024-02-28T07:56:59;8.70;60.30
3736;DHT22;1883;48.202;16.310;2024-02-28T07:59:27;8.70;59.30
3736;DHT22;1883;48.202;16.310;2024-02-28T08:01:54;8.70;59.10
3736;DHT22;1883;48.202;16.310;2024-02-28T08:04:22;8.70;59.60
3736;DHT22;1883;48.202;16.310;2024-02-28T08:06:51;8.70;59.60
3736;DHT22;1883;48.202;16.310;2024-02-28T08:09:32;8.60;63.80
3736;DHT22;1883;48.202;16.310;2024-02-28T08:12:03;8.70;63.90
3736;DHT22;1883;48.202;16.310;2024-02-28T08:14:30;8.70;63.90
3736;DHT22;1883;48.202;16.310;2024-02-28T08:16:59;8.70;63.80
3736;DHT22;1883;48.202;16.310;2024-02-28T08:19:34;8.70;63.90
3736;DHT22;1883;48.202;16.310;2024-02-28T08:22:03;8.70;64.00
3736;DHT22;1883;48.202;16.310;2024-02-28T08:24:32;8.80;64.00
3736;DHT22;1883;48.202;16.310;2024-02-28T08:27:01;8.80;64.00
3736;DHT22;1883;48.202;16.310;2024-02-28T08:29:31;8.90;64.30
3736;DHT22;1883;48.202;16.310;2024-02-28T08:31:59;8.80;64.10
3736;DHT22;1883;48.202;16.310;2024-02-28T08:34:26;8.80;64.20
3736;DHT22;1883;48.202;16.310;2024-02-28T08:36:53;8.90;64.20
3736;DHT22;1883;48.202;16.310;2024-02-28T08:39:23;9.00;64.50
3736;DHT22;1883;48.202;16.310;2024-02-28T08:41:52;9.00;64.20
3736;DHT22;1883;48.202;16.310;2024-02-28T08:44:19;9.10;64.50
3736;DHT22;1883;48.202;16.310;2024-02-28T08:46:46;9.10;64.60
3736;DHT22;1883;48.202;16.310;2024-02-28T08:49:16;9.30;64.70
3736;DHT22;1883;48.202;16.310;2024-02-28T08:51:43;9.30;64.80
3736;DHT22;1883;48.202;16.310;2024-02-28T08:54:10;9.30;64.70
3736;DHT22;1883;48.202;16.310;2024-02-28T08:56:39;9.40;64.90
3736;DHT22;1883;48.202;16.310;2024-02-28T08:59:08;9.50;65.00
3736;DHT22;1883;48.202;16.310;2024-02-28T09:01:35;9.50;65.00
3736;DHT22;1883;48.202;16.310;2024-02-28T09:04:02;9.50;65.10
3736;DHT22;1883;48.202;16.310;2024-02-28T09:06:30;9.50;65.10
3736;DHT22;1883;48.202;16.310;2024-02-28T09:08:57;9.50;65.10
3736;DHT22;1883;48.202;16.310;2024-02-28T09:11:24;9.60;65.10
3736;DHT22;1883;48.202;16.310;2024-02-28T09:13:51;9.70;65.30
3736;DHT22;1883;48.202;16.310;2024-02-28T09:16:20;9.70;65.40
3736;DHT22;1883;48.202;16.310;2024-02-28T09:18:47;9.60;65.20
3736;DHT22;1883;48.202;16.310;2024-02-28T09:21:22;9.60;65.20
3736;DHT22;1883;48.202;16.310;2024-02-28T09:23:51;9.70;65.30
3736;DHT22;1883;48.202;16.310;2024-02-28T09:26:18;9.80;65.40
3736;DHT22;1883;48.202;16.310;2024-02-28T09:28:46;9.90;65.50
3736;DHT22;1883;48.202;16.310;2024-02-28T09:31:14;9.90;65.50
3736;DHT22;1883;48.202;16.310;2024-02-28T09:36:23;9.90;65.70
3736;DHT22;1883;48.202;16.310;2024-02-28T09:38:51;10.00;65.70
3736;DHT22;1883;48.202;16.310;2024-02-28T09:41:20;10.00;65.80
3736;DHT22;1883;48.202;16.310;2024-02-28T09:43:53;10.20;66.10
3736;DHT22;1883;48.202;16.310;2024-02-28T09:46:39;10.20;65.90
3736;DHT22;1883;48.202;16.310;2024-02-28T09:49:13;10.30;66.10
3736;DHT22;1883;48.202;16.310;2024-02-28T09:52:10;10.30;66.10
3736;DHT22;1883;48.202;16.310;2024-02-28T09:54:57;10.30;66.20
3736;DHT22;1883;48.202;16.310;2024-02-28T09:57:25;10.30;66.10
3736;DHT22;1883;48.202;16.310;2024-02-28T09:59:56;10.30;66.10
3736;DHT22;1883;48.202;16.310;2024-02-28T10:02:25;10.40;66.20
3736;DHT22;1883;48.202;16.310;2024-02-28T10:04:56;10.40;66.20
3736;DHT22;1883;48.202;16.310;2024-02-28T10:07:24;10.60;66.50
3736;DHT22;1883;48.202;16.310;2024-02-28T10:09:51;10.60;66.40
3736;DHT22;1883;48.202;16.310;2024-02-28T10:12:19;10.70;66.40
3736;DHT22;1883;48.202;16.310;2024-02-28T10:14:49;10.90;66.50
3736;DHT22;1883;48.202;16.310;2024-02-28T10:17:18;10.90;66.70
3736;DHT22;1883;48.202;16.310;2024-02-28T10:19:58;11.10;66.80
3736;DHT22;1883;48.202;16.310;2024-02-28T10:22:25;11.30;67.10
3736;DHT22;1883;48.202;16.310;2024-02-28T10:24:57;11.60;67.20
3736;DHT22;1883;48.202;16.310;2024-02-28T10:27:24;11.50;67.40
3736;DHT22;1883;48.202;16.310;2024-02-28T10:29:52;11.50;67.40
3736;DHT22;1883;48.202;16.310;2024-02-28T10:32:19;11.60;67.40
3736;DHT22;1883;48.202;16.310;2024-02-28T10:34:46;11.60;67.60
3736;DHT22;1883;48.202;16.310;2024-02-28T10:37:15;11.50;67.60
3736;DHT22;1883;48.202;16.310;2024-02-28T10:39:44;11.40;67.50
3736;DHT22;1883;48.202;16.310;2024-02-28T10:42:14;11.40;67.40
3736;DHT22;1883;48.202;16.310;2024-02-28T10:44:42;11.40;67.60
3736;DHT22;1883;48.202;16.310;2024-02-28T10:47:10;11.60;67.60
3736;DHT22;1883;48.202;16.310;2024-02-28T10:52:06;11.70;68.20
3736;DHT22;1883;48.202;16.310;2024-02-28T10:54:39;11.70;67.90
3736;DHT22;1883;48.202;16.310;2024-02-28T10:57:07;11.80;68.00
3736;DHT22;1883;48.202;16.310;2024-02-28T10:59:37;11.90;68.00
3736;DHT22;1883;48.202;16.310;2024-02-28T11:02:05;12.00;68.20
3736;DHT22;1883;48.202;16.310;2024-02-28T11:04:33;12.00;68.30
3736;DHT22;1883;48.202;16.310;2024-02-28T11:07:03;11.80;68.20
3736;DHT22;1883;48.202;16.310;2024-02-28T11:09:34;11.70;68.00
3736;DHT22;1883;48.202;16.310;2024-02-28T11:12:24;11.70;68.00
3736;DHT22;1883;48.202;16.310;2024-02-28T11:14:58;11.70;68.10
3736;DHT22;1883;48.202;16.310;2024-02-28T11:17:26;11.70;68.10
3736;DHT22;1883;48.202;16.310;2024-02-28T11:19:54;11.70;68.20
3736;DHT22;1883;48.202;16.310;2024-02-28T11:22:22;11.80;68.00
3736;DHT22;1883;48.202;16.310;2024-02-28T11:24:49;12.00;68.40
3736;DHT22;1883;48.202;16.310;2024-02-28T11:27:21;11.90;68.20
3736;DHT22;1883;48.202;16.310;2024-02-28T11:29:48;11.70;68.10
3736;DHT22;1883;48.202;16.310;2024-02-28T11:32:15;11.70;68.00
3736;DHT22;1883;48.202;16.310;2024-02-28T11:37:12;11.70;68.20
3736;DHT22;1883;48.202;16.310;2024-02-28T11:39:39;11.70;68.00
3736;DHT22;1883;48.202;16.310;2024-02-28T11:42:10;11.70;68.00
3736;DHT22;1883;48.202;16.310;2024-02-28T11:44:40;11.80;68.30
3736;DHT22;1883;48.202;16.310;2024-02-28T11:47:09;11.80;68.20
3736;DHT22;1883;48.202;16.310;2024-02-28T11:49:37;11.80;68.20
3736;DHT22;1883;48.202;16.310;2024-02-28T11:52:05;11.90;68.30
3736;DHT22;1883;48.202;16.310;2024-02-28T11:54:32;12.10;68.70
3736;DHT22;1883;48.202;16.310;2024-02-28T11:56:59;12.00;68.50
3736;DHT22;1883;48.202;16.310;2024-02-28T11:59:28;12.10;68.50
3736;DHT22;1883;48.202;16.310;2024-02-28T12:01:57;12.10;68.50
3736;DHT22;1883;48.202;16.310;2024-02-28T12:04:25;12.20;68.50
3736;DHT22;1883;48.202;16.310;2024-02-28T12:06:52;12.10;68.70
3736;DHT22;1883;48.202;16.310;2024-02-28T12:09:20;12.10;68.60
3736;DHT22;1883;48.202;16.310;2024-02-28T12:11:47;12.30;68.70
3736;DHT22;1883;48.202;16.310;2024-02-28T12:14:15;12.50;69.00
3736;DHT22;1883;48.202;16.310;2024-02-28T12:16:43;12.60;69.10
3736;DHT22;1883;48.202;16.310;2024-02-28T12:19:13;12.40;69.00
3736;DHT22;1883;48.202;16.310;2024-02-28T12:21:42;12.40;68.80
3736;DHT22;1883;48.202;16.310;2024-02-28T12:24:10;12.30;68.80
3736;DHT22;1883;48.202;16.310;2024-02-28T12:26:38;12.20;68.80
3736;DHT22;1883;48.202;16.310;2024-02-28T12:29:05;12.10;68.70
3736;DHT22;1883;48.202;16.310;2024-02-28T12:31:32;12.20;68.90
3736;DHT22;1883;48.202;16.310;2024-02-28T12:33:59;12.10;68.80
3736;DHT22;1883;48.202;16.310;2024-02-28T12:36:28;12.10;68.80
3736;DHT22;1883;48.202;16.310;2024-02-28T12:38:56;11.90;68.80
3736;DHT22;1883;48.202;16.310;2024-02-28T12:41:27;12.00;68.80
3736;DHT22;1883;48.202;16.310;2024-02-28T12:43:54;11.90;68.80
3736;DHT22;1883;48.202;16.310;2024-02-28T12:46:21;12.10;68.90
3736;DHT22;1883;48.202;16.310;2024-02-28T12:48:48;12.10;69.00
3736;DHT22;1883;48.202;16.310;2024-02-28T12:51:35;12.00;68.90
3736;DHT22;1883;48.202;16.310;2024-02-28T12:54:04;12.00;68.90
3736;DHT22;1883;48.202;16.310;2024-02-28T12:56:31;12.10;68.90
3736;DHT22;1883;48.202;16.310;2024-02-28T12:58:59;12.20;69.10
3736;DHT22;1883;48.202;16.310;2024-02-28T13:01:27;12.20;69.10
3736;DHT22;1883;48.202;16.310;2024-02-28T13:03:54;12.30;69.20
3736;DHT22;1883;48.202;16.310;2024-02-28T13:06:21;12.30;69.10
3736;DHT22;1883;48.202;16.310;2024-02-28T13:08:48;12.30;69.10
3736;DHT22;1883;48.202;16.310;2024-02-28T13:11:26;12.30;69.10
3736;DHT22;1883;48.202;16.310;2024-02-28T13:14:10;12.20;69.00
3736;DHT22;1883;48.202;16.310;2024-02-28T13:16:38;12.10;68.70
3736;DHT22;1883;48.202;16.310;2024-02-28T13:19:05;12.00;68.80
3736;DHT22;1883;48.202;16.310;2024-02-28T13:21:47;11.90;68.70
3736;DHT22;1883;48.202;16.310;2024-02-28T13:24:14;11.90;68.70
3736;DHT22;1883;48.202;16.310;2024-02-28T13:26:55;11.90;68.50
3736;DHT22;1883;48.202;16.310;2024-02-28T13:29:36;11.80;68.70
3736;DHT22;1883;48.202;16.310;2024-02-28T13:32:03;12.00;68.70
3736;DHT22;1883;48.202;16.310;2024-02-28T13:34:31;11.90;68.70
3736;DHT22;1883;48.202;16.310;2024-02-28T13:36:58;12.10;68.80
3736;DHT22;1883;48.202;16.310;2024-02-28T13:39:25;12.00;68.80
3736;DHT22;1883;48.202;16.310;2024-02-28T13:41:54;12.10;68.90
3736;DHT22;1883;48.202;16.310;2024-02-28T13:44:21;12.10;68.90
3736;DHT22;1883;48.202;16.310;2024-02-28T13:46:50;12.00;68.80
3736;DHT22;1883;48.202;16.310;2024-02-28T13:49:19;11.90;68.80
3736;DHT22;1883;48.202;16.310;2024-02-28T13:51:47;11.70;68.60
3736;DHT22;1883;48.202;16.310;2024-02-28T13:54:15;11.70;68.60
3736;DHT22;1883;48.202;16.310;2024-02-28T13:56:42;11.60;68.40
3736;DHT22;1883;48.202;16.310;2024-02-28T13:59:11;11.60;68.50
3736;DHT22;1883;48.202;16.310;2024-02-28T14:01:38;11.60;68.40
3736;DHT22;1883;48.202;16.310;2024-02-28T14:04:05;11.60;68.40
3736;DHT22;1883;48.202;16.310;2024-02-28T14:06:32;11.50;68.40
3736;DHT22;1883;48.202;16.310;2024-02-28T14:08:59;11.50;68.30
3736;DHT22;1883;48.202;16.310;2024-02-28T14:11:26;11.60;68.30
3736;DHT22;1883;48.202;16.310;2024-02-28T14:13:54;11.50;68.30
3736;DHT22;1883;48.202;16.310;2024-02-28T14:16:23;11.50;68.30
3736;DHT22;1883;48.202;16.310;2024-02-28T14:18:50;11.20;68.10
3736;DHT22;1883;48.202;16.310;2024-02-28T14:21:18;11.20;67.90
3736;DHT22;1883;48.202;16.310;2024-02-28T14:23:46;11.10;67.90
3736;DHT22;1883;48.202;16.310;2024-02-28T14:26:14;10.90;67.70
3736;DHT22;1883;48.202;16.310;2024-02-28T14:28:42;11.00;67.70
3736;DHT22;1883;48.202;16.310;2024-02-28T14:31:10;11.10;67.80
3736;DHT22;1883;48.202;16.310;2024-02-28T14:33:41;11.10;67.70
3736;DHT22;1883;48.202;16.310;2024-02-28T14:36:08;11.10;67.80
3736;DHT22;1883;48.202;16.310;2024-02-28T14:38:35;11.10;67.70
3736;DHT22;1883;48.202;16.310;2024-02-28T14:41:02;11.10;67.80
3736;DHT22;1883;48.202;16.310;2024-02-28T14:43:30;11.20;67.80
3736;DHT22;1883;48.202;16.310;2024-02-28T14:45:57;11.30;67.90
3736;DHT22;1883;48.202;16.310;2024-02-28T14:48:28;11.50;68.10
3736;DHT22;1883;48.202;16.310;2024-02-28T14:50:57;11.30;68.10
3736;DHT22;1883;48.202;16.310;2024-02-28T14:53:24;11.30;67.90
3736;DHT22;1883;48.202;16.310;2024-02-28T14:55:51;11.20;67.90
3736;DHT22;1883;48.202;16.310;2024-02-28T14:58:18;11.10;67.80
3736;DHT22;1883;48.202;16.310;2024-02-28T15:00:46;11.20;67.80
3736;DHT22;1883;48.202;16.310;2024-02-28T15:03:14;11.20;67.80
3736;DHT22;1883;48.202;16.310;2024-02-28T15:05:44;11.20;67.80
3736;DHT22;1883;48.202;16.310;2024-02-28T15:08:14;11.20;67.80
3736;DHT22;1883;48.202;16.310;2024-02-28T15:10:42;11.20;67.60
3736;DHT22;1883;48.202;16.310;2024-02-28T15:13:10;11.10;67.60
3736;DHT22;1883;48.202;16.310;2024-02-28T15:15:45;11.10;67.60
3736;DHT22;1883;48.202;16.310;2024-02-28T15:18:17;11.00;67.40
3736;DHT22;1883;48.202;16.310;2024-02-28T15:20:47;11.00;67.40
3736;DHT22;1883;48.202;16.310;2024-02-28T15:23:25;10.90;67.40
3736;DHT22;1883;48.202;16.310;2024-02-28T15:26:07;10.90;67.20
3736;DHT22;1883;48.202;16.310;2024-02-28T15:28:34;10.80;67.20
3736;DHT22;1883;48.202;16.310;2024-02-28T15:31:03;10.80;67.10
3736;DHT22;1883;48.202;16.310;2024-02-28T15:33:32;10.90;67.10
3736;DHT22;1883;48.202;16.310;2024-02-28T15:36:09;10.70;67.00
3736;DHT22;1883;48.202;16.310;2024-02-28T15:38:40;10.60;66.90
3736;DHT22;1883;48.202;16.310;2024-02-28T15:41:22;10.60;66.80
3736;DHT22;1883;48.202;16.310;2024-02-28T15:43:50;10.50;66.70
3736;DHT22;1883;48.202;16.310;2024-02-28T15:46:24;10.30;66.50
3736;DHT22;1883;48.202;16.310;2024-02-28T15:48:54;10.30;66.40
3736;DHT22;1883;48.202;16.310;2024-02-28T15:51:29;10.20;66.30
3736;DHT22;1883;48.202;16.310;2024-02-28T15:53:59;10.20;66.20
3736;DHT22;1883;48.202;16.310;2024-02-28T15:56:39;10.10;66.20
3736;DHT22;1883;48.202;16.310;2024-02-28T15:59:10;10.00;66.10
3736;DHT22;1883;48.202;16.310;2024-02-28T16:01:39;10.00;66.00
3736;DHT22;1883;48.202;16.310;2024-02-28T16:04:07;10.00;66.00
3736;DHT22;1883;48.202;16.310;2024-02-28T16:06:36;9.90;65.90
3736;DHT22;1883;48.202;16.310;2024-02-28T16:09:14;9.80;65.80